sensor_id;sensor_type;location;lat;lon;timestamp;pressure;altitude;pressure_sealevel;temperature
11849;BMP180;5983;49.966;8.052;2022-08-04T00:01:18;100303.00;;;22.50
11849;BMP180;5983;49.966;8.052;2022-08-04T00:03:56;100303.00;;;22.50
11849;BMP180;5983;49.966;8.052;2022-08-04T00:06:43;100305.00;;;22.40
11849;BMP180;5983;49.966;8.052;2022-08-04T00:09:25;100295.00;;;22.40
11849;BMP180;5983;49.966;8.052;2022-08-04T00:11:59;100299.00;;;22.40
11849;BMP180;5983;49.966;8.052;2022-08-04T00:14:33;100289.00;;;22.30
11849;BMP180;5983;49.966;8.052;2022-08-04T00:17:04;100293.00;;;22.30
11849;BMP180;5983;49.966;8.052;2022-08-04T00:19:40;100289.00;;;22.30
11849;BMP180;5983;49.966;8.052;2022-08-04T00:22:09;100291.00;;;22.30
11849;BMP180;5983;49.966;8.052;2022-08-04T00:24:37;100289.00;;;22.30
11849;BMP180;5983;49.966;8.052;2022-08-04T00:27:06;100283.00;;;22.20
11849;BMP180;5983;49.966;8.052;2022-08-04T00:29:38;100288.00;;;22.20
11849;BMP180;5983;49.966;8.052;2022-08-04T00:32:07;100292.00;;;22.20
11849;BMP180;5983;49.966;8.052;2022-08-04T00:34:35;100291.00;;;22.20
11849;BMP180;5983;49.966;8.052;2022-08-04T00:37:05;100291.00;;;22.20
11849;BMP180;5983;49.966;8.052;2022-08-04T00:39:33;100300.00;;;22.20
11849;BMP180;5983;49.966;8.052;2022-08-04T00:45:43;100292.00;;;22.10
11849;BMP180;5983;49.966;8.052;2022-08-04T00:48:31;100290.00;;;22.00
11849;BMP180;5983;49.966;8.052;2022-08-04T00:51:14;100293.00;;;22.00
11849;BMP180;5983;49.966;8.052;2022-08-04T00:54:00;100287.00;;;22.00
11849;BMP180;5983;49.966;8.052;2022-08-04T00:57:15;100290.00;;;22.00
11849;BMP180;5983;49.966;8.052;2022-08-04T01:00:04;100290.00;;;21.90
11849;BMP180;5983;49.966;8.052;2022-08-04T01:02:46;100291.00;;;21.80
11849;BMP180;5983;49.966;8.052;2022-08-04T01:05:26;100288.00;;;21.80
11849;BMP180;5983;49.966;8.052;2022-08-04T01:11:37;100293.00;;;21.80
11849;BMP180;5983;49.966;8.052;2022-08-04T01:14:45;100289.00;;;21.70
11849;BMP180;5983;49.966;8.052;2022-08-04T01:17:23;100296.00;;;21.70
11849;BMP180;5983;49.966;8.052;2022-08-04T01:20:02;100289.00;;;21.70
11849;BMP180;5983;49.966;8.052;2022-08-04T01:23:20;100291.00;;;21.60
11849;BMP180;5983;49.966;8.052;2022-08-04T01:26:33;100289.00;;;21.50
11849;BMP180;5983;49.966;8.052;2022-08-04T01:29:08;100289.00;;;21.50
11849;BMP180;5983;49.966;8.052;2022-08-04T01:32:02;100289.00;;;21.50
11849;BMP180;5983;49.966;8.052;2022-08-04T01:34:35;100287.00;;;21.50
11849;BMP180;5983;49.966;8.052;2022-08-04T01:37:20;100287.00;;;21.40
11849;BMP180;5983;49.966;8.052;2022-08-04T01:40:01;100286.00;;;21.40
11849;BMP180;5983;49.966;8.052;2022-08-04T01:42:32;100278.00;;;21.40
11849;BMP180;5983;49.966;8.052;2022-08-04T01:45:05;100277.00;;;21.40
11849;BMP180;5983;49.966;8.052;2022-08-04T01:47:35;100283.00;;;21.40
11849;BMP180;5983;49.966;8.052;2022-08-04T01:50:06;100283.00;;;21.30
11849;BMP180;5983;49.966;8.052;2022-08-04T01:52:36;100282.00;;;21.30
11849;BMP180;5983;49.966;8.052;2022-08-04T01:55:06;100278.00;;;21.30
11849;BMP180;5983;49.966;8.052;2022-08-04T01:57:36;100276.00;;;21.30
11849;BMP180;5983;49.966;8.052;2022-08-04T02:00:06;100280.00;;;21.30
11849;BMP180;5983;49.966;8.052;2022-08-04T02:02:34;100283.00;;;21.20
11849;BMP180;5983;49.966;8.052;2022-08-04T02:05:01;100280.00;;;21.20
11849;BMP180;5983;49.966;8.052;2022-08-04T02:07:48;100276.00;;;21.10
11849;BMP180;5983;49.966;8.052;2022-08-04T02:10:26;100267.00;;;21.10
11849;BMP180;5983;49.966;8.052;2022-08-04T02:13:09;100268.00;;;21.10
11849;BMP180;5983;49.966;8.052;2022-08-04T02:15:49;100272.00;;;21.10
11849;BMP180;5983;49.966;8.052;2022-08-04T02:18:24;100268.00;;;21.10
11849;BMP180;5983;49.966;8.052;2022-08-04T02:20:58;100273.00;;;21.10
11849;BMP180;5983;49.966;8.052;2022-08-04T02:23:34;100271.00;;;21.00
11849;BMP180;5983;49.966;8.052;2022-08-04T02:26:05;100264.00;;;21.00
11849;BMP180;5983;49.966;8.052;2022-08-04T02:28:45;100269.00;;;20.90
11849;BMP180;5983;49.966;8.052;2022-08-04T02:31:29;100262.00;;;20.80
11849;BMP180;5983;49.966;8.052;2022-08-04T02:34:07;100263.00;;;20.80
11849;BMP180;5983;49.966;8.052;2022-08-04T02:36:38;100266.00;;;20.80
11849;BMP180;5983;49.966;8.052;2022-08-04T02:39:08;100260.00;;;20.80
11849;BMP180;5983;49.966;8.052;2022-08-04T02:41:37;100253.00;;;20.70
11849;BMP180;5983;49.966;8.052;2022-08-04T02:44:07;100258.00;;;20.80
11849;BMP180;5983;49.966;8.052;2022-08-04T02:46:38;100254.00;;;20.80
11849;BMP180;5983;49.966;8.052;2022-08-04T02:49:08;100245.00;;;20.80
11849;BMP180;5983;49.966;8.052;2022-08-04T02:51:40;100253.00;;;20.80
11849;BMP180;5983;49.966;8.052;2022-08-04T02:54:08;100242.00;;;20.70
11849;BMP180;5983;49.966;8.052;2022-08-04T02:56:38;100242.00;;;20.70
11849;BMP180;5983;49.966;8.052;2022-08-04T02:59:07;100244.00;;;20.70
11849;BMP180;5983;49.966;8.052;2022-08-04T03:01:36;100245.00;;;20.70
11849;BMP180;5983;49.966;8.052;2022-08-04T03:04:30;100246.00;;;20.60
11849;BMP180;5983;49.966;8.052;2022-08-04T03:07:33;100249.00;;;20.60
11849;BMP180;5983;49.966;8.052;2022-08-04T03:20:32;100249.00;;;20.20
11849;BMP180;5983;49.966;8.052;2022-08-04T03:24:01;100254.00;;;20.20
11849;BMP180;5983;49.966;8.052;2022-08-04T03:27:10;100253.00;;;20.20
11849;BMP180;5983;49.966;8.052;2022-08-04T03:30:11;100245.00;;;20.20
11849;BMP180;5983;49.966;8.052;2022-08-04T03:33:13;100248.00;;;20.20
11849;BMP180;5983;49.966;8.052;2022-08-04T03:36:39;100251.00;;;20.10
11849;BMP180;5983;49.966;8.052;2022-08-04T03:40:02;100254.00;;;20.10
11849;BMP180;5983;49.966;8.052;2022-08-04T03:46:19;100259.00;;;20.20
11849;BMP180;5983;49.966;8.052;2022-08-04T03:49:43;100260.00;;;20.10
11849;BMP180;5983;49.966;8.052;2022-08-04T03:52:51;100260.00;;;20.10
11849;BMP180;5983;49.966;8.052;2022-08-04T03:56:19;100258.00;;;20.10
11849;BMP180;5983;49.966;8.052;2022-08-04T04:05:54;100260.00;;;19.90
11849;BMP180;5983;49.966;8.052;2022-08-04T04:15:24;100263.00;;;19.80
11849;BMP180;5983;49.966;8.052;2022-08-04T04:18:15;100258.00;;;19.70
11849;BMP180;5983;49.966;8.052;2022-08-04T04:20:59;100257.00;;;19.80
11849;BMP180;5983;49.966;8.052;2022-08-04T04:23:56;100266.00;;;19.70
11849;BMP180;5983;49.966;8.052;2022-08-04T04:26:54;100262.00;;;19.80
11849;BMP180;5983;49.966;8.052;2022-08-04T04:29:57;100267.00;;;19.80
11849;BMP180;5983;49.966;8.052;2022-08-04T04:32:42;100270.00;;;19.80
11849;BMP180;5983;49.966;8.052;2022-08-04T04:35:32;100275.00;;;19.70
11849;BMP180;5983;49.966;8.052;2022-08-04T04:38:28;100277.00;;;19.70
11849;BMP180;5983;49.966;8.052;2022-08-04T04:41:14;100267.00;;;19.80
11849;BMP180;5983;49.966;8.052;2022-08-04T04:44:09;100279.00;;;19.80
11849;BMP180;5983;49.966;8.052;2022-08-04T04:46:46;100277.00;;;19.80
11849;BMP180;5983;49.966;8.052;2022-08-04T04:49:27;100273.00;;;19.90
11849;BMP180;5983;49.966;8.052;2022-08-04T04:52:02;100276.00;;;20.00
11849;BMP180;5983;49.966;8.052;2022-08-04T04:54:38;100285.00;;;20.20
11849;BMP180;5983;49.966;8.052;2022-08-04T04:57:12;100277.00;;;20.20
11849;BMP180;5983;49.966;8.052;2022-08-04T04:59:46;100284.00;;;20.30
11849;BMP180;5983;49.966;8.052;2022-08-04T05:02:44;100287.00;;;20.40
11849;BMP180;5983;49.966;8.052;2022-08-04T05:05:32;100287.00;;;20.40
11849;BMP180;5983;49.966;8.052;2022-08-04T05:12:13;100280.00;;;20.60
11849;BMP180;5983;49.966;8.052;2022-08-04T05:14:49;100290.00;;;20.70
11849;BMP180;5983;49.966;8.052;2022-08-04T05:17:24;100288.00;;;20.80
11849;BMP180;5983;49.966;8.052;2022-08-04T05:19:59;100286.00;;;20.90
11849;BMP180;5983;49.966;8.052;2022-08-04T05:22:33;100294.00;;;21.00
11849;BMP180;5983;49.966;8.052;2022-08-04T05:25:11;100292.00;;;21.10
11849;BMP180;5983;49.966;8.052;2022-08-04T05:27:46;100299.00;;;21.20
11849;BMP180;5983;49.966;8.052;2022-08-04T05:30:17;100295.00;;;21.30
11849;BMP180;5983;49.966;8.052;2022-08-04T05:32:54;100297.00;;;21.40
11849;BMP180;5983;49.966;8.052;2022-08-04T05:35:28;100299.00;;;21.50
11849;BMP180;5983;49.966;8.052;2022-08-04T05:37:56;100297.00;;;21.60
11849;BMP180;5983;49.966;8.052;2022-08-04T05:40:26;100306.00;;;21.60
11849;BMP180;5983;49.966;8.052;2022-08-04T05:42:56;100301.00;;;21.80
11849;BMP180;5983;49.966;8.052;2022-08-04T05:45:25;100295.00;;;21.90
11849;BMP180;5983;49.966;8.052;2022-08-04T05:47:53;100293.00;;;22.00
11849;BMP180;5983;49.966;8.052;2022-08-04T05:50:22;100291.00;;;22.10
11849;BMP180;5983;49.966;8.052;2022-08-04T05:52:51;100295.00;;;22.20
11849;BMP180;5983;49.966;8.052;2022-08-04T05:55:19;100300.00;;;22.30
11849;BMP180;5983;49.966;8.052;2022-08-04T05:57:48;100299.00;;;22.50
11849;BMP180;5983;49.966;8.052;2022-08-04T06:00:17;100295.00;;;22.60
11849;BMP180;5983;49.966;8.052;2022-08-04T06:02:46;100300.00;;;22.80
11849;BMP180;5983;49.966;8.052;2022-08-04T06:05:15;100311.00;;;23.00
11849;BMP180;5983;49.966;8.052;2022-08-04T06:07:43;100302.00;;;23.10
11849;BMP180;5983;49.966;8.052;2022-08-04T06:10:10;100309.00;;;23.30
11849;BMP180;5983;49.966;8.052;2022-08-04T06:12:45;100304.00;;;23.40
11849;BMP180;5983;49.966;8.052;2022-08-04T06:15:19;100303.00;;;23.50
11849;BMP180;5983;49.966;8.052;2022-08-04T06:17:52;100303.00;;;23.50
11849;BMP180;5983;49.966;8.052;2022-08-04T06:20:25;100308.00;;;23.50
11849;BMP180;5983;49.966;8.052;2022-08-04T06:22:56;100307.00;;;23.60
11849;BMP180;5983;49.966;8.052;2022-08-04T06:25:30;100297.00;;;23.80
11849;BMP180;5983;49.966;8.052;2022-08-04T06:28:00;100295.00;;;24.00
11849;BMP180;5983;49.966;8.052;2022-08-04T06:30:31;100304.00;;;24.10
11849;BMP180;5983;49.966;8.052;2022-08-04T06:33:00;100306.00;;;24.30
11849;BMP180;5983;49.966;8.052;2022-08-04T06:35:30;100296.00;;;24.40
11849;BMP180;5983;49.966;8.052;2022-08-04T06:37:59;100294.00;;;24.60
11849;BMP180;5983;49.966;8.052;2022-08-04T06:40:28;100300.00;;;24.80
11849;BMP180;5983;49.966;8.052;2022-08-04T06:42:56;100297.00;;;25.00
11849;BMP180;5983;49.966;8.052;2022-08-04T06:45:24;100301.00;;;25.20
11849;BMP180;5983;49.966;8.052;2022-08-04T06:47:55;100300.00;;;25.40
11849;BMP180;5983;49.966;8.052;2022-08-04T06:50:23;100299.00;;;25.50
11849;BMP180;5983;49.966;8.052;2022-08-04T06:52:50;100305.00;;;25.60
11849;BMP180;5983;49.966;8.052;2022-08-04T06:55:18;100304.00;;;25.80
11849;BMP180;5983;49.966;8.052;2022-08-04T06:57:45;100303.00;;;25.90
11849;BMP180;5983;49.966;8.052;2022-08-04T07:00:15;100303.00;;;26.10
11849;BMP180;5983;49.966;8.052;2022-08-04T07:02:45;100301.00;;;26.20
11849;BMP180;5983;49.966;8.052;2022-08-04T07:05:16;100304.00;;;26.40
11849;BMP180;5983;49.966;8.052;2022-08-04T07:07:44;100305.00;;;26.60
11849;BMP180;5983;49.966;8.052;2022-08-04T07:10:13;100309.00;;;26.80
11849;BMP180;5983;49.966;8.052;2022-08-04T07:12:41;100306.00;;;27.10
11849;BMP180;5983;49.966;8.052;2022-08-04T07:15:10;100301.00;;;27.30
11849;BMP180;5983;49.966;8.052;2022-08-04T07:17:39;100303.00;;;27.50
11849;BMP180;5983;49.966;8.052;2022-08-04T07:20:07;100310.00;;;27.70
11849;BMP180;5983;49.966;8.052;2022-08-04T07:22:36;100308.00;;;27.90
11849;BMP180;5983;49.966;8.052;2022-08-04T07:25:09;100315.00;;;27.90
11849;BMP180;5983;49.966;8.052;2022-08-04T07:27:38;100308.00;;;28.10
11849;BMP180;5983;49.966;8.052;2022-08-04T07:30:06;100314.00;;;28.20
11849;BMP180;5983;49.966;8.052;2022-08-04T07:32:34;100317.00;;;28.30
11849;BMP180;5983;49.966;8.052;2022-08-04T07:35:05;100309.00;;;28.40
11849;BMP180;5983;49.966;8.052;2022-08-04T07:37:33;100312.00;;;28.60
11849;BMP180;5983;49.966;8.052;2022-08-04T07:40:01;100302.00;;;28.60
11849;BMP180;5983;49.966;8.052;2022-08-04T07:42:29;100317.00;;;28.60
11849;BMP180;5983;49.966;8.052;2022-08-04T07:44:57;100317.00;;;28.60
11849;BMP180;5983;49.966;8.052;2022-08-04T07:47:24;100309.00;;;28.70
11849;BMP180;5983;49.966;8.052;2022-08-04T07:49:52;100306.00;;;28.70
11849;BMP180;5983;49.966;8.052;2022-08-04T07:52:20;100315.00;;;28.90
11849;BMP180;5983;49.966;8.052;2022-08-04T07:54:49;100309.00;;;29.00
11849;BMP180;5983;49.966;8.052;2022-08-04T07:57:18;100300.00;;;29.00
11849;BMP180;5983;49.966;8.052;2022-08-04T07:59:46;100310.00;;;29.10
11849;BMP180;5983;49.966;8.052;2022-08-04T08:02:14;100308.00;;;29.40
11849;BMP180;5983;49.966;8.052;2022-08-04T08:04:42;100303.00;;;29.60
11849;BMP180;5983;49.966;8.052;2022-08-04T08:07:10;100311.00;;;29.70
11849;BMP180;5983;49.966;8.052;2022-08-04T08:09:37;100303.00;;;29.80
11849;BMP180;5983;49.966;8.052;2022-08-04T08:12:07;100307.00;;;29.80
11849;BMP180;5983;49.966;8.052;2022-08-04T08:14:36;100308.00;;;29.80
11849;BMP180;5983;49.966;8.052;2022-08-04T08:17:04;100307.00;;;30.10
11849;BMP180;5983;49.966;8.052;2022-08-04T08:19:33;100300.00;;;30.30
11849;BMP180;5983;49.966;8.052;2022-08-04T08:22:02;100305.00;;;30.50
11849;BMP180;5983;49.966;8.052;2022-08-04T08:24:34;100303.00;;;30.50
11849;BMP180;5983;49.966;8.052;2022-08-04T08:27:02;100304.00;;;30.60
11849;BMP180;5983;49.966;8.052;2022-08-04T08:29:32;100303.00;;;30.80
11849;BMP180;5983;49.966;8.052;2022-08-04T08:32:02;100301.00;;;31.20
11849;BMP180;5983;49.966;8.052;2022-08-04T08:34:30;100312.00;;;31.50
11849;BMP180;5983;49.966;8.052;2022-08-04T08:37:06;100305.00;;;31.60
11849;BMP180;5983;49.966;8.052;2022-08-04T08:39:39;100308.00;;;31.70
11849;BMP180;5983;49.966;8.052;2022-08-04T08:42:53;100312.00;;;31.90
11849;BMP180;5983;49.966;8.052;2022-08-04T08:46:06;100304.00;;;32.20
11849;BMP180;5983;49.966;8.052;2022-08-04T08:49:02;100303.00;;;32.50
11849;BMP180;5983;49.966;8.052;2022-08-04T08:52:03;100295.00;;;32.70
11849;BMP180;5983;49.966;8.052;2022-08-04T08:54:53;100300.00;;;32.80
11849;BMP180;5983;49.966;8.052;2022-08-04T09:00:52;100303.00;;;32.90
11849;BMP180;5983;49.966;8.052;2022-08-04T09:07:12;100305.00;;;33.00
11849;BMP180;5983;49.966;8.052;2022-08-04T09:10:07;100290.00;;;33.10
11849;BMP180;5983;49.966;8.052;2022-08-04T09:12:45;100288.00;;;33.20
11849;BMP180;5983;49.966;8.052;2022-08-04T09:15:26;100290.00;;;33.10
11849;BMP180;5983;49.966;8.052;2022-08-04T09:18:05;100291.00;;;33.20
11849;BMP180;5983;49.966;8.052;2022-08-04T09:20:42;100289.00;;;33.30
11849;BMP180;5983;49.966;8.052;2022-08-04T09:23:19;100293.00;;;33.30
11849;BMP180;5983;49.966;8.052;2022-08-04T09:25:58;100302.00;;;33.30
11849;BMP180;5983;49.966;8.052;2022-08-04T09:28:34;100302.00;;;33.30
11849;BMP180;5983;49.966;8.052;2022-08-04T09:31:10;100297.00;;;33.50
11849;BMP180;5983;49.966;8.052;2022-08-04T09:33:56;100299.00;;;33.80
11849;BMP180;5983;49.966;8.052;2022-08-04T09:36:36;100300.00;;;33.80
11849;BMP180;5983;49.966;8.052;2022-08-04T09:39:18;100307.00;;;33.90
11849;BMP180;5983;49.966;8.052;2022-08-04T09:42:00;100292.00;;;34.10
11849;BMP180;5983;49.966;8.052;2022-08-04T09:44:41;100292.00;;;34.20
11849;BMP180;5983;49.966;8.052;2022-08-04T09:47:16;100287.00;;;34.40
11849;BMP180;5983;49.966;8.052;2022-08-04T09:49:54;100288.00;;;34.50
11849;BMP180;5983;49.966;8.052;2022-08-04T09:52:42;100293.00;;;34.60
11849;BMP180;5983;49.966;8.052;2022-08-04T09:55:19;100290.00;;;34.60
11849;BMP180;5983;49.966;8.052;2022-08-04T09:58:00;100293.00;;;34.70
11849;BMP180;5983;49.966;8.052;2022-08-04T10:00:43;100288.00;;;34.90
11849;BMP180;5983;49.966;8.052;2022-08-04T10:03:13;100284.00;;;35.00
11849;BMP180;5983;49.966;8.052;2022-08-04T10:05:54;100290.00;;;35.10
11849;BMP180;5983;49.966;8.052;2022-08-04T10:08:48;100279.00;;;35.10
11849;BMP180;5983;49.966;8.052;2022-08-04T10:11:32;100280.00;;;35.20
11849;BMP180;5983;49.966;8.052;2022-08-04T10:14:14;100272.00;;;35.40
11849;BMP180;5983;49.966;8.052;2022-08-04T10:16:56;100274.00;;;35.60
11849;BMP180;5983;49.966;8.052;2022-08-04T10:19:28;100269.00;;;35.60
11849;BMP180;5983;49.966;8.052;2022-08-04T10:22:10;100265.00;;;35.60
11849;BMP180;5983;49.966;8.052;2022-08-04T10:25:02;100263.00;;;35.70
11849;BMP180;5983;49.966;8.052;2022-08-04T10:27:37;100259.00;;;35.80
11849;BMP180;5983;49.966;8.052;2022-08-04T10:30:08;100268.00;;;35.80
11849;BMP180;5983;49.966;8.052;2022-08-04T10:32:44;100261.00;;;35.90
11849;BMP180;5983;49.966;8.052;2022-08-04T10:35:20;100246.00;;;36.10
11849;BMP180;5983;49.966;8.052;2022-08-04T10:38:00;100247.00;;;36.10
11849;BMP180;5983;49.966;8.052;2022-08-04T10:40:38;100250.00;;;36.20
11849;BMP180;5983;49.966;8.052;2022-08-04T10:43:20;100244.00;;;36.40
11849;BMP180;5983;49.966;8.052;2022-08-04T10:45:57;100242.00;;;36.40
11849;BMP180;5983;49.966;8.052;2022-08-04T10:48:41;100246.00;;;36.50
11849;BMP180;5983;49.966;8.052;2022-08-04T10:51:20;100243.00;;;36.60
11849;BMP180;5983;49.966;8.052;2022-08-04T10:53:57;100241.00;;;36.70
11849;BMP180;5983;49.966;8.052;2022-08-04T10:56:34;100239.00;;;36.70
11849;BMP180;5983;49.966;8.052;2022-08-04T10:59:16;100247.00;;;36.70
11849;BMP180;5983;49.966;8.052;2022-08-04T11:01:49;100240.00;;;36.70
11849;BMP180;5983;49.966;8.052;2022-08-04T11:04:25;100242.00;;;36.80
11849;BMP180;5983;49.966;8.052;2022-08-04T11:06:59;100238.00;;;36.80
11849;BMP180;5983;49.966;8.052;2022-08-04T11:09:27;100229.00;;;36.80
11849;BMP180;5983;49.966;8.052;2022-08-04T11:12:06;100235.00;;;37.00
11849;BMP180;5983;49.966;8.052;2022-08-04T11:14:40;100232.00;;;37.20
11849;BMP180;5983;49.966;8.052;2022-08-04T11:17:16;100230.00;;;37.30
11849;BMP180;5983;49.966;8.052;2022-08-04T11:19:51;100224.00;;;37.30
11849;BMP180;5983;49.966;8.052;2022-08-04T11:22:25;100229.00;;;37.50
11849;BMP180;5983;49.966;8.052;2022-08-04T11:25:03;100229.00;;;37.50
11849;BMP180;5983;49.966;8.052;2022-08-04T11:27:58;100225.00;;;37.50
11849;BMP180;5983;49.966;8.052;2022-08-04T11:30:34;100225.00;;;37.70
11849;BMP180;5983;49.966;8.052;2022-08-04T11:33:09;100218.00;;;37.80
11849;BMP180;5983;49.966;8.052;2022-08-04T11:36:01;100219.00;;;37.90
11849;BMP180;5983;49.966;8.052;2022-08-04T11:38:36;100218.00;;;38.10
11849;BMP180;5983;49.966;8.052;2022-08-04T11:41:10;100221.00;;;38.10
11849;BMP180;5983;49.966;8.052;2022-08-04T11:43:50;100220.00;;;38.20
11849;BMP180;5983;49.966;8.052;2022-08-04T11:46:27;100227.00;;;38.30
11849;BMP180;5983;49.966;8.052;2022-08-04T11:49:02;100220.00;;;38.40
11849;BMP180;5983;49.966;8.052;2022-08-04T11:51:33;100218.00;;;38.50
11849;BMP180;5983;49.966;8.052;2022-08-04T11:54:02;100218.00;;;38.60
11849;BMP180;5983;49.966;8.052;2022-08-04T11:56:30;100214.00;;;38.60
11849;BMP180;5983;49.966;8.052;2022-08-04T11:59:00;100207.00;;;38.70
11849;BMP180;5983;49.966;8.052;2022-08-04T12:01:37;100211.00;;;38.90
11849;BMP180;5983;49.966;8.052;2022-08-04T12:04:16;100204.00;;;38.80
11849;BMP180;5983;49.966;8.052;2022-08-04T12:06:50;100190.00;;;38.60
11849;BMP180;5983;49.966;8.052;2022-08-04T12:09:31;100194.00;;;38.60
11849;BMP180;5983;49.966;8.052;2022-08-04T12:12:12;100188.00;;;38.50
11849;BMP180;5983;49.966;8.052;2022-08-04T12:15:08;100192.00;;;38.60
11849;BMP180;5983;49.966;8.052;2022-08-04T12:17:45;100188.00;;;38.70
11849;BMP180;5983;49.966;8.052;2022-08-04T12:20:18;100188.00;;;38.90
11849;BMP180;5983;49.966;8.052;2022-08-04T12:22:49;100183.00;;;39.00
11849;BMP180;5983;49.966;8.052;2022-08-04T12:25:23;100188.00;;;39.10
11849;BMP180;5983;49.966;8.052;2022-08-04T12:28:02;100175.00;;;39.20
11849;BMP180;5983;49.966;8.052;2022-08-04T12:30:41;100176.00;;;39.30
11849;BMP180;5983;49.966;8.052;2022-08-04T12:33:18;100176.00;;;39.40
11849;BMP180;5983;49.966;8.052;2022-08-04T12:35:54;100169.00;;;39.50
11849;BMP180;5983;49.966;8.052;2022-08-04T12:38:28;100173.00;;;39.50
11849;BMP180;5983;49.966;8.052;2022-08-04T12:40:59;100173.00;;;39.60
11849;BMP180;5983;49.966;8.052;2022-08-04T12:43:36;100174.00;;;39.70
11849;BMP180;5983;49.966;8.052;2022-08-04T12:46:08;100184.00;;;39.60
11849;BMP180;5983;49.966;8.052;2022-08-04T12:48:37;100180.00;;;39.60
11849;BMP180;5983;49.966;8.052;2022-08-04T12:51:08;100164.00;;;39.60
11849;BMP180;5983;49.966;8.052;2022-08-04T12:53:38;100160.00;;;39.70
11849;BMP180;5983;49.966;8.052;2022-08-04T12:56:08;100165.00;;;39.80
11849;BMP180;5983;49.966;8.052;2022-08-04T12:58:39;100158.00;;;39.80
11849;BMP180;5983;49.966;8.052;2022-08-04T13:01:12;100155.00;;;39.90
11849;BMP180;5983;49.966;8.052;2022-08-04T13:03:44;100150.00;;;39.80
11849;BMP180;5983;49.966;8.052;2022-08-04T13:06:15;100147.00;;;39.90
11849;BMP180;5983;49.966;8.052;2022-08-04T13:08:45;100144.00;;;39.90
11849;BMP180;5983;49.966;8.052;2022-08-04T13:11:15;100147.00;;;39.90
11849;BMP180;5983;49.966;8.052;2022-08-04T13:13:44;100136.00;;;39.90
11849;BMP180;5983;49.966;8.052;2022-08-04T13:16:13;100133.00;;;39.80
11849;BMP180;5983;49.966;8.052;2022-08-04T13:18:47;100130.00;;;39.80
11849;BMP180;5983;49.966;8.052;2022-08-04T13:21:18;100133.00;;;39.90
11849;BMP180;5983;49.966;8.052;2022-08-04T13:23:48;100129.00;;;39.90
11849;BMP180;5983;49.966;8.052;2022-08-04T13:26:17;100124.00;;;40.00
11849;BMP180;5983;49.966;8.052;2022-08-04T13:28:48;100118.00;;;40.10
11849;BMP180;5983;49.966;8.052;2022-08-04T13:31:20;100120.00;;;39.90
11849;BMP180;5983;49.966;8.052;2022-08-04T13:33:51;100128.00;;;39.50
11849;BMP180;5983;49.966;8.052;2022-08-04T13:36:24;100120.00;;;39.20
11849;BMP180;5983;49.966;8.052;2022-08-04T13:38:56;100123.00;;;39.10
11849;BMP180;5983;49.966;8.052;2022-08-04T13:41:25;100122.00;;;38.90
11849;BMP180;5983;49.966;8.052;2022-08-04T13:43:57;100119.00;;;38.70
11849;BMP180;5983;49.966;8.052;2022-08-04T13:46:28;100115.00;;;38.60
11849;BMP180;5983;49.966;8.052;2022-08-04T13:49:00;100108.00;;;38.60
11849;BMP180;5983;49.966;8.052;2022-08-04T13:51:31;100103.00;;;38.70
11849;BMP180;5983;49.966;8.052;2022-08-04T13:53:59;100100.00;;;38.90
11849;BMP180;5983;49.966;8.052;2022-08-04T13:56:37;100100.00;;;39.00
11849;BMP180;5983;49.966;8.052;2022-08-04T13:59:10;100096.00;;;39.10
11849;BMP180;5983;49.966;8.052;2022-08-04T14:01:43;100103.00;;;39.00
11849;BMP180;5983;49.966;8.052;2022-08-04T14:04:16;100093.00;;;39.00
11849;BMP180;5983;49.966;8.052;2022-08-04T14:06:49;100092.00;;;38.90
11849;BMP180;5983;49.966;8.052;2022-08-04T14:09:20;100099.00;;;38.60
11849;BMP180;5983;49.966;8.052;2022-08-04T14:11:51;100090.00;;;38.60
11849;BMP180;5983;49.966;8.052;2022-08-04T14:14:21;100084.00;;;38.70
11849;BMP180;5983;49.966;8.052;2022-08-04T14:17:03;100085.00;;;38.70
11849;BMP180;5983;49.966;8.052;2022-08-04T14:19:50;100082.00;;;38.60
11849;BMP180;5983;49.966;8.052;2022-08-04T14:22:30;100079.00;;;38.50
11849;BMP180;5983;49.966;8.052;2022-08-04T14:25:02;100070.00;;;38.40
11849;BMP180;5983;49.966;8.052;2022-08-04T14:27:39;100081.00;;;38.30
11849;BMP180;5983;49.966;8.052;2022-08-04T14:30:24;100069.00;;;38.20
11849;BMP180;5983;49.966;8.052;2022-08-04T14:33:02;100064.00;;;38.20
11849;BMP180;5983;49.966;8.052;2022-08-04T14:35:30;100074.00;;;38.20
11849;BMP180;5983;49.966;8.052;2022-08-04T14:38:01;100070.00;;;38.00
11849;BMP180;5983;49.966;8.052;2022-08-04T14:40:31;100080.00;;;37.90
11849;BMP180;5983;49.966;8.052;2022-08-04T14:43:00;100057.00;;;37.90
11849;BMP180;5983;49.966;8.052;2022-08-04T14:45:30;100067.00;;;37.80
11849;BMP180;5983;49.966;8.052;2022-08-04T14:48:00;100074.00;;;37.80
11849;BMP180;5983;49.966;8.052;2022-08-04T14:50:38;100069.00;;;37.70
11849;BMP180;5983;49.966;8.052;2022-08-04T14:53:09;100065.00;;;37.60
11849;BMP180;5983;49.966;8.052;2022-08-04T14:55:38;100062.00;;;37.60
11849;BMP180;5983;49.966;8.052;2022-08-04T14:58:06;100063.00;;;37.50
11849;BMP180;5983;49.966;8.052;2022-08-04T15:00:36;100055.00;;;37.40
11849;BMP180;5983;49.966;8.052;2022-08-04T15:03:06;100067.00;;;37.40
11849;BMP180;5983;49.966;8.052;2022-08-04T15:05:34;100069.00;;;37.30
11849;BMP180;5983;49.966;8.052;2022-08-04T15:08:02;100063.00;;;37.30
11849;BMP180;5983;49.966;8.052;2022-08-04T15:10:30;100066.00;;;37.20
11849;BMP180;5983;49.966;8.052;2022-08-04T15:12:57;100070.00;;;37.10
11849;BMP180;5983;49.966;8.052;2022-08-04T15:15:24;100070.00;;;37.00
11849;BMP180;5983;49.966;8.052;2022-08-04T15:17:52;100060.00;;;36.90
11849;BMP180;5983;49.966;8.052;2022-08-04T15:20:21;100059.00;;;36.80
11849;BMP180;5983;49.966;8.052;2022-08-04T15:22:48;100058.00;;;36.70
11849;BMP180;5983;49.966;8.052;2022-08-04T15:25:16;100060.00;;;36.60
11849;BMP180;5983;49.966;8.052;2022-08-04T15:27:48;100057.00;;;36.50
11849;BMP180;5983;49.966;8.052;2022-08-04T15:30:17;100057.00;;;36.40
11849;BMP180;5983;49.966;8.052;2022-08-04T15:32:51;100048.00;;;36.40
11849;BMP180;5983;49.966;8.052;2022-08-04T15:35:24;100056.00;;;36.40
11849;BMP180;5983;49.966;8.052;2022-08-04T15:38:01;100052.00;;;36.40
11849;BMP180;5983;49.966;8.052;2022-08-04T15:40:44;100051.00;;;36.40
11849;BMP180;5983;49.966;8.052;2022-08-04T15:43:38;100048.00;;;36.40
11849;BMP180;5983;49.966;8.052;2022-08-04T15:46:09;100052.00;;;36.30
11849;BMP180;5983;49.966;8.052;2022-08-04T15:48:38;100051.00;;;36.30